sensor_id;sensor_type;location;lat;lon;timestamp;P1;durP1;ratioP1;P2;durP2;ratioP2
75371;SDS011;63956;52.006;5.878;2022-11-15T14:59:13;5.80;;;1.23;;
75371;SDS011;63956;52.006;5.878;2022-11-15T15:01:42;3.90;;;2.45;;
75371;SDS011;63956;52.006;5.878;2022-11-15T15:04:11;6.28;;;3.92;;
75371;SDS011;63956;52.006;5.878;2022-11-15T15:06:40;4.90;;;2.60;;
75371;SDS011;63956;52.006;5.878;2022-11-15T15:09:10;4.15;;;0.63;;
75371;SDS011;63956;52.006;5.878;2022-11-15T15:11:39;6.70;;;2.20;;
75371;SDS011;63956;52.006;5.878;2022-11-15T15:14:08;5.35;;;1.77;;
75371;SDS011;63956;52.006;5.878;2022-11-15T15:16:40;6.57;;;2.22;;
75371;SDS011;63956;52.006;5.878;2022-11-15T15:19:09;4.38;;;1.98;;
75371;SDS011;63956;52.006;5.878;2022-11-15T15:21:38;4.78;;;1.88;;
75371;SDS011;63956;52.006;5.878;2022-11-15T15:24:08;5.63;;;0.90;;
75371;SDS011;63956;52.006;5.878;2022-11-15T15:26:41;6.00;;;1.63;;
75371;SDS011;63956;52.006;5.878;2022-11-15T15:31:42;4.00;;;1.85;;
75371;SDS011;63956;52.006;5.878;2022-11-15T15:34:11;5.70;;;1.60;;
75371;SDS011;63956;52.006;5.878;2022-11-15T15:36:40;4.20;;;1.73;;
75371;SDS011;63956;52.006;5.878;2022-11-15T15:41:38;3.80;;;1.88;;
75371;SDS011;63956;52.006;5.878;2022-11-15T15:44:07;7.80;;;2.42;;
75371;SDS011;63956;52.006;5.878;2022-11-15T15:46:37;3.63;;;0.80;;
75371;SDS011;63956;52.006;5.878;2022-11-15T15:51:38;4.80;;;1.80;;
75371;SDS011;63956;52.006;5.878;2022-11-15T15:56:36;5.78;;;1.10;;
75371;SDS011;63956;52.006;5.878;2022-11-15T15:59:05;5.03;;;2.50;;
75371;SDS011;63956;52.006;5.878;2022-11-15T16:04:03;5.07;;;2.20;;
75371;SDS011;63956;52.006;5.878;2022-11-15T16:09:10;4.97;;;1.67;;
75371;SDS011;63956;52.006;5.878;2022-11-15T16:11:42;4.30;;;2.33;;
75371;SDS011;63956;52.006;5.878;2022-11-15T16:14:13;4.85;;;1.42;;
75371;SDS011;63956;52.006;5.878;2022-11-15T16:19:10;6.25;;;2.47;;
75371;SDS011;63956;52.006;5.878;2022-11-15T16:21:43;5.60;;;1.02;;
75371;SDS011;63956;52.006;5.878;2022-11-15T16:24:12;5.72;;;0.95;;
75371;SDS011;63956;52.006;5.878;2022-11-15T16:29:10;5.70;;;0.88;;
75371;SDS011;63956;52.006;5.878;2022-11-15T16:31:39;3.67;;;0.80;;
75371;SDS011;63956;52.006;5.878;2022-11-15T16:34:08;3.78;;;1.73;;
75371;SDS011;63956;52.006;5.878;2022-11-15T16:36:37;6.95;;;3.22;;
75371;SDS011;63956;52.006;5.878;2022-11-15T16:39:10;6.22;;;2.72;;
75371;SDS011;63956;52.006;5.878;2022-11-15T16:41:44;5.25;;;1.55;;
75371;SDS011;63956;52.006;5.878;2022-11-15T16:44:13;8.23;;;2.28;;
75371;SDS011;63956;52.006;5.878;2022-11-15T16:46:42;4.82;;;2.53;;
75371;SDS011;63956;52.006;5.878;2022-11-15T16:49:16;4.72;;;1.30;;
75371;SDS011;63956;52.006;5.878;2022-11-15T16:51:47;4.72;;;1.83;;
75371;SDS011;63956;52.006;5.878;2022-11-15T16:54:20;5.05;;;2.40;;
75371;SDS011;63956;52.006;5.878;2022-11-15T16:56:49;5.65;;;1.13;;
75371;SDS011;63956;52.006;5.878;2022-11-15T17:01:47;6.95;;;4.32;;
75371;SDS011;63956;52.006;5.878;2022-11-15T17:04:18;6.88;;;2.17;;
75371;SDS011;63956;52.006;5.878;2022-11-15T17:06:48;6.70;;;2.97;;
75371;SDS011;63956;52.006;5.878;2022-11-15T17:09:21;6.88;;;3.08;;
75371;SDS011;63956;52.006;5.878;2022-11-15T17:11:51;7.90;;;1.17;;
75371;SDS011;63956;52.006;5.878;2022-11-15T17:14:20;6.05;;;2.70;;
75371;SDS011;63956;52.006;5.878;2022-11-15T17:16:50;5.47;;;2.20;;
75371;SDS011;63956;52.006;5.878;2022-11-15T17:19:19;3.92;;;1.02;;
75371;SDS011;63956;52.006;5.878;2022-11-15T17:21:49;5.15;;;1.17;;
75371;SDS011;63956;52.006;5.878;2022-11-15T17:24:21;5.53;;;1.60;;
75371;SDS011;63956;52.006;5.878;2022-11-15T17:26:50;7.30;;;3.45;;
75371;SDS011;63956;52.006;5.878;2022-11-15T17:29:20;5.55;;;2.80;;
75371;SDS011;63956;52.006;5.878;2022-11-15T17:31:49;8.43;;;3.30;;
75371;SDS011;63956;52.006;5.878;2022-11-15T17:36:47;7.45;;;3.08;;
75371;SDS011;63956;52.006;5.878;2022-11-15T17:39:16;5.32;;;2.78;;
75371;SDS011;63956;52.006;5.878;2022-11-15T17:41:48;5.30;;;2.78;;
75371;SDS011;63956;52.006;5.878;2022-11-15T17:44:17;5.45;;;2.53;;
75371;SDS011;63956;52.006;5.878;2022-11-15T17:46:46;5.93;;;2.05;;
75371;SDS011;63956;52.006;5.878;2022-11-15T17:49:16;7.13;;;3.40;;
75371;SDS011;63956;52.006;5.878;2022-11-15T17:51:45;6.75;;;3.45;;
75371;SDS011;63956;52.006;5.878;2022-11-15T17:54:14;6.15;;;1.25;;
75371;SDS011;63956;52.006;5.878;2022-11-15T17:56:43;5.90;;;3.05;;
75371;SDS011;63956;52.006;5.878;2022-11-15T17:59:15;6.30;;;2.70;;
75371;SDS011;63956;52.006;5.878;2022-11-15T18:01:44;4.13;;;1.20;;
75371;SDS011;63956;52.006;5.878;2022-11-15T18:04:15;5.90;;;1.45;;
75371;SDS011;63956;52.006;5.878;2022-11-15T18:06:44;6.80;;;1.90;;
75371;SDS011;63956;52.006;5.878;2022-11-15T18:09:16;5.32;;;1.45;;
75371;SDS011;63956;52.006;5.878;2022-11-15T18:11:46;5.45;;;1.50;;
75371;SDS011;63956;52.006;5.878;2022-11-15T18:14:19;7.10;;;4.05;;
75371;SDS011;63956;52.006;5.878;2022-11-15T18:16:50;4.32;;;1.42;;
75371;SDS011;63956;52.006;5.878;2022-11-15T18:19:19;4.95;;;1.85;;
75371;SDS011;63956;52.006;5.878;2022-11-15T18:21:48;7.22;;;3.17;;
75371;SDS011;63956;52.006;5.878;2022-11-15T18:24:26;5.93;;;3.45;;
75371;SDS011;63956;52.006;5.878;2022-11-15T18:26:56;5.38;;;3.20;;
75371;SDS011;63956;52.006;5.878;2022-11-15T18:29:30;5.57;;;2.55;;
75371;SDS011;63956;52.006;5.878;2022-11-15T18:32:02;5.35;;;1.45;;
75371;SDS011;63956;52.006;5.878;2022-11-15T18:34:36;7.78;;;4.45;;
75371;SDS011;63956;52.006;5.878;2022-11-15T18:37:06;8.27;;;3.53;;
75371;SDS011;63956;52.006;5.878;2022-11-15T18:39:35;7.35;;;3.47;;
75371;SDS011;63956;52.006;5.878;2022-11-15T18:42:04;7.65;;;4.07;;
75371;SDS011;63956;52.006;5.878;2022-11-15T18:44:36;6.75;;;3.30;;
75371;SDS011;63956;52.006;5.878;2022-11-15T18:47:05;5.57;;;2.50;;
75371;SDS011;63956;52.006;5.878;2022-11-15T18:49:35;6.38;;;2.83;;
75371;SDS011;63956;52.006;5.878;2022-11-15T18:52:04;9.82;;;2.45;;
75371;SDS011;63956;52.006;5.878;2022-11-15T18:54:33;5.72;;;2.35;;
75371;SDS011;63956;52.006;5.878;2022-11-15T18:57:02;7.90;;;4.63;;
75371;SDS011;63956;52.006;5.878;2022-11-15T18:59:31;7.38;;;4.20;;
75371;SDS011;63956;52.006;5.878;2022-11-15T19:02:03;6.80;;;2.90;;
75371;SDS011;63956;52.006;5.878;2022-11-15T19:04:32;5.68;;;3.95;;
75371;SDS011;63956;52.006;5.878;2022-11-15T19:07:01;7.20;;;3.67;;
75371;SDS011;63956;52.006;5.878;2022-11-15T19:09:30;8.18;;;3.90;;
75371;SDS011;63956;52.006;5.878;2022-11-15T19:12:01;4.63;;;1.45;;
75371;SDS011;63956;52.006;5.878;2022-11-15T19:14:30;6.88;;;3.78;;
75371;SDS011;63956;52.006;5.878;2022-11-15T19:16:59;8.60;;;5.05;;
75371;SDS011;63956;52.006;5.878;2022-11-15T19:19:31;9.45;;;4.07;;
75371;SDS011;63956;52.006;5.878;2022-11-15T19:22:00;6.53;;;3.45;;
75371;SDS011;63956;52.006;5.878;2022-11-15T19:24:29;7.40;;;3.15;;
75371;SDS011;63956;52.006;5.878;2022-11-15T19:27:00;7.45;;;4.05;;
75371;SDS011;63956;52.006;5.878;2022-11-15T19:29:29;8.40;;;5.32;;
75371;SDS011;63956;52.006;5.878;2022-11-15T19:31:58;5.50;;;2.58;;
75371;SDS011;63956;52.006;5.878;2022-11-15T19:34:31;6.65;;;4.78;;
75371;SDS011;63956;52.006;5.878;2022-11-15T19:37:00;7.05;;;4.28;;
75371;SDS011;63956;52.006;5.878;2022-11-15T19:39:30;7.03;;;3.95;;
75371;SDS011;63956;52.006;5.878;2022-11-15T19:41:59;6.30;;;3.25;;
75371;SDS011;63956;52.006;5.878;2022-11-15T19:44:28;7.57;;;4.22;;
75371;SDS011;63956;52.006;5.878;2022-11-15T19:46:57;9.10;;;4.18;;
75371;SDS011;63956;52.006;5.878;2022-11-15T19:49:26;8.32;;;3.40;;
75371;SDS011;63956;52.006;5.878;2022-11-15T19:51:58;7.20;;;3.05;;
75371;SDS011;63956;52.006;5.878;2022-11-15T19:54:27;7.95;;;4.35;;
75371;SDS011;63956;52.006;5.878;2022-11-15T19:56:56;5.60;;;2.65;;
75371;SDS011;63956;52.006;5.878;2022-11-15T20:01:54;5.70;;;2.22;;
75371;SDS011;63956;52.006;5.878;2022-11-15T20:04:23;6.97;;;2.67;;
75371;SDS011;63956;52.006;5.878;2022-11-15T20:06:52;6.43;;;2.25;;
75371;SDS011;63956;52.006;5.878;2022-11-15T20:09:24;6.55;;;2.72;;
75371;SDS011;63956;52.006;5.878;2022-11-15T20:11:53;8.18;;;4.70;;
75371;SDS011;63956;52.006;5.878;2022-11-15T20:14:23;9.63;;;4.57;;
75371;SDS011;63956;52.006;5.878;2022-11-15T20:16:54;8.55;;;3.25;;
75371;SDS011;63956;52.006;5.878;2022-11-15T20:19:23;9.55;;;5.35;;
75371;SDS011;63956;52.006;5.878;2022-11-15T20:21:52;8.55;;;4.95;;
75371;SDS011;63956;52.006;5.878;2022-11-15T20:24:24;5.15;;;2.45;;
75371;SDS011;63956;52.006;5.878;2022-11-15T20:26:53;4.40;;;1.77;;
75371;SDS011;63956;52.006;5.878;2022-11-15T20:29:22;10.48;;;5.60;;
75371;SDS011;63956;52.006;5.878;2022-11-15T20:31:51;7.80;;;4.38;;
75371;SDS011;63956;52.006;5.878;2022-11-15T20:34:21;5.63;;;3.75;;
75371;SDS011;63956;52.006;5.878;2022-11-15T20:36:50;7.47;;;3.25;;
75371;SDS011;63956;52.006;5.878;2022-11-15T20:39:19;6.80;;;3.08;;
75371;SDS011;63956;52.006;5.878;2022-11-15T20:41:51;5.75;;;3.80;;
75371;SDS011;63956;52.006;5.878;2022-11-15T20:44:20;6.40;;;2.60;;
75371;SDS011;63956;52.006;5.878;2022-11-15T20:46:49;5.57;;;2.42;;
75371;SDS011;63956;52.006;5.878;2022-11-15T20:49:18;5.85;;;2.78;;
75371;SDS011;63956;52.006;5.878;2022-11-15T20:54:16;6.93;;;2.50;;
75371;SDS011;63956;52.006;5.878;2022-11-15T20:56:45;9.05;;;5.65;;
75371;SDS011;63956;52.006;5.878;2022-11-15T20:59:17;6.28;;;3.70;;
75371;SDS011;63956;52.006;5.878;2022-11-15T21:01:46;7.35;;;4.47;;
75371;SDS011;63956;52.006;5.878;2022-11-15T21:06:44;5.88;;;3.28;;
75371;SDS011;63956;52.006;5.878;2022-11-15T21:11:54;8.77;;;5.55;;
75371;SDS011;63956;52.006;5.878;2022-11-15T21:14:42;8.95;;;6.10;;
75371;SDS011;63956;52.006;5.878;2022-11-15T21:17:13;7.32;;;4.75;;
75371;SDS011;63956;52.006;5.878;2022-11-15T21:19:43;6.95;;;3.85;;
75371;SDS011;63956;52.006;5.878;2022-11-15T21:24:42;7.80;;;4.80;;
75371;SDS011;63956;52.006;5.878;2022-11-15T21:27:11;9.68;;;5.80;;
75371;SDS011;63956;52.006;5.878;2022-11-15T21:29:43;8.18;;;4.30;;
75371;SDS011;63956;52.006;5.878;2022-11-15T21:32:12;9.52;;;3.38;;
75371;SDS011;63956;52.006;5.878;2022-11-15T21:34:41;5.90;;;2.85;;
75371;SDS011;63956;52.006;5.878;2022-11-15T21:37:11;10.07;;;4.95;;
75371;SDS011;63956;52.006;5.878;2022-11-15T21:42:09;12.30;;;5.10;;
75371;SDS011;63956;52.006;5.878;2022-11-15T21:47:09;8.70;;;3.83;;
75371;SDS011;63956;52.006;5.878;2022-11-15T21:49:39;11.35;;;6.57;;
75371;SDS011;63956;52.006;5.878;2022-11-15T21:54:36;9.70;;;5.22;;
75371;SDS011;63956;52.006;5.878;2022-11-15T21:57:09;7.40;;;3.40;;
75371;SDS011;63956;52.006;5.878;2022-11-15T21:59:38;10.38;;;4.97;;
75371;SDS011;63956;52.006;5.878;2022-11-15T22:02:29;9.20;;;4.40;;
75371;SDS011;63956;52.006;5.878;2022-11-15T22:04:56;8.45;;;5.22;;
75371;SDS011;63956;52.006;5.878;2022-11-15T22:07:25;7.95;;;3.95;;
75371;SDS011;63956;52.006;5.878;2022-11-15T22:09:54;8.77;;;4.72;;
75371;SDS011;63956;52.006;5.878;2022-11-15T22:12:23;11.85;;;7.55;;
75371;SDS011;63956;52.006;5.878;2022-11-15T22:14:52;8.07;;;3.83;;
75371;SDS011;63956;52.006;5.878;2022-11-15T22:17:21;10.13;;;4.25;;
75371;SDS011;63956;52.006;5.878;2022-11-15T22:20:13;10.00;;;6.63;;
75371;SDS011;63956;52.006;5.878;2022-11-15T22:22:43;10.20;;;7.07;;
75371;SDS011;63956;52.006;5.878;2022-11-15T22:25:12;10.18;;;4.68;;
75371;SDS011;63956;52.006;5.878;2022-11-15T22:27:41;10.13;;;6.03;;
75371;SDS011;63956;52.006;5.878;2022-11-15T22:30:11;8.05;;;5.75;;
75371;SDS011;63956;52.006;5.878;2022-11-15T22:32:40;6.70;;;4.78;;
75371;SDS011;63956;52.006;5.878;2022-11-15T22:35:09;8.65;;;5.70;;
75371;SDS011;63956;52.006;5.878;2022-11-15T22:37:42;8.05;;;4.60;;
75371;SDS011;63956;52.006;5.878;2022-11-15T22:40:11;12.93;;;8.23;;
75371;SDS011;63956;52.006;5.878;2022-11-15T22:42:40;9.65;;;7.03;;
75371;SDS011;63956;52.006;5.878;2022-11-15T22:47:38;12.43;;;7.20;;
75371;SDS011;63956;52.006;5.878;2022-11-15T22:50:07;13.13;;;7.03;;
75371;SDS011;63956;52.006;5.878;2022-11-15T22:52:39;8.82;;;5.90;;
75371;SDS011;63956;52.006;5.878;2022-11-15T22:55:08;12.80;;;8.20;;
75371;SDS011;63956;52.006;5.878;2022-11-15T22:57:38;9.13;;;4.38;;
75371;SDS011;63956;52.006;5.878;2022-11-15T23:00:09;13.30;;;8.50;;
75371;SDS011;63956;52.006;5.878;2022-11-15T23:02:40;9.57;;;5.05;;
75371;SDS011;63956;52.006;5.878;2022-11-15T23:05:09;8.98;;;5.07;;
75371;SDS011;63956;52.006;5.878;2022-11-15T23:07:41;12.02;;;6.82;;
75371;SDS011;63956;52.006;5.878;2022-11-15T23:10:12;9.60;;;5.00;;
75371;SDS011;63956;52.006;5.878;2022-11-15T23:12:53;7.75;;;3.75;;
75371;SDS011;63956;52.006;5.878;2022-11-15T23:18:15;11.50;;;6.95;;
75371;SDS011;63956;52.006;5.878;2022-11-15T23:20:45;14.57;;;8.63;;
75371;SDS011;63956;52.006;5.878;2022-11-15T23:23:17;11.93;;;6.22;;
75371;SDS011;63956;52.006;5.878;2022-11-15T23:25:43;12.23;;;8.15;;
75371;SDS011;63956;52.006;5.878;2022-11-15T23:28:12;11.23;;;7.13;;
75371;SDS011;63956;52.006;5.878;2022-11-15T23:30:41;14.07;;;7.30;;
75371;SDS011;63956;52.006;5.878;2022-11-15T23:33:31;17.30;;;11.70;;
75371;SDS011;63956;52.006;5.878;2022-11-15T23:36:13;10.82;;;6.10;;
75371;SDS011;63956;52.006;5.878;2022-11-15T23:38:45;13.82;;;8.90;;
75371;SDS011;63956;52.006;5.878;2022-11-15T23:41:14;20.55;;;9.80;;
75371;SDS011;63956;52.006;5.878;2022-11-15T23:43:43;9.68;;;6.35;;
75371;SDS011;63956;52.006;5.878;2022-11-15T23:46:12;15.05;;;9.32;;
75371;SDS011;63956;52.006;5.878;2022-11-15T23:48:42;7.63;;;5.47;;
75371;SDS011;63956;52.006;5.878;2022-11-15T23:51:11;12.68;;;8.93;;
75371;SDS011;63956;52.006;5.878;2022-11-15T23:53:40;12.57;;;8.60;;
75371;SDS011;63956;52.006;5.878;2022-11-15T23:56:12;11.48;;;6.05;;
75371;SDS011;63956;52.006;5.878;2022-11-15T23:58:43;14.10;;;8.23;;
